Time;durP1;ratioP1;P1;durP2;ratioP2;P2;SDS_P1;SDS_P2;PMS_P1;PMS_P2;Temp;Humidity;BMP_temperature;BMP_pressure;BME280_temperature;BME280_humidity;BME280_pressure;Samples;Min_cycle;Max_cycle;Signal;HPM_P1;HPM_P2
2023/04/26 00:02:14;;;;;;;11.05;4.85;;;9.90;99.90;;;;;;5069265;28;20224;-73
2023/04/26 00:05:06;;;;;;;8.18;5.30;;;10.00;99.90;;;;;;5073519;28;20308;-72
2023/04/26 00:07:57;;;;;;;9.90;4.57;;;9.90;99.90;;;;;;5068215;28;20725;-72
2023/04/26 00:10:46;;;;;;;9.45;4.00;;;9.90;99.90;;;;;;5074371;28;20722;-73
2023/04/26 00:13:35;;;;;;;5.25;3.65;;;9.80;99.90;;;;;;5076754;28;20224;-73
2023/04/26 00:16:25;;;;;;;9.63;3.65;;;9.70;99.90;;;;;;5069257;28;20227;-72
2023/04/26 00:19:14;;;;;;;8.27;3.72;;;9.70;99.90;;;;;;5070303;28;20233;-73
2023/04/26 00:22:05;;;;;;;6.57;3.30;;;9.70;99.90;;;;;;5078030;28;20230;-72
2023/04/26 00:24:54;;;;;;;8.80;3.58;;;9.80;99.90;;;;;;5109378;27;20224;-72
2023/04/26 00:27:42;;;;;;;4.97;2.75;;;9.80;99.90;;;;;;5069127;28;20227;-72
2023/04/26 00:30:33;;;;;;;5.05;2.60;;;9.70;99.90;;;;;;5099590;27;20311;-72
2023/04/26 00:33:22;;;;;;;4.90;2.53;;;9.70;99.90;;;;;;5071590;28;20294;-74
2023/04/26 00:36:10;;;;;;;5.32;2.72;;;9.60;99.90;;;;;;5064343;28;20234;-73
2023/04/26 00:39:01;;;;;;;4.07;2.10;;;9.70;99.90;;;;;;5063602;28;20216;-73
2023/04/26 00:41:51;;;;;;;3.33;2.15;;;9.70;99.90;;;;;;5067283;28;20539;-74
2023/04/26 00:44:40;;;;;;;3.90;2.05;;;9.40;99.90;;;;;;5073657;28;20212;-72
2023/04/26 00:47:30;;;;;;;3.45;1.70;;;9.50;99.90;;;;;;5073851;28;20639;-74
2023/04/26 00:50:20;;;;;;;4.93;1.83;;;9.40;99.90;;;;;;5075419;28;20215;-73
2023/04/26 00:53:13;;;;;;;4.30;1.90;;;9.50;99.90;;;;;;5087280;28;20714;-73
2023/04/26 00:56:03;;;;;;;4.88;1.73;;;9.20;99.90;;;;;;5072948;28;20227;-72
2023/04/26 00:58:52;;;;;;;6.82;1.83;;;9.20;99.90;;;;;;5072092;28;20223;-74
2023/04/26 01:01:41;;;;;;;6.43;2.15;;;9.40;99.90;;;;;;5100863;27;20224;-74
2023/04/26 01:04:32;;;;;;;7.40;2.25;;;9.30;99.90;;;;;;5068233;28;20219;-72
2023/04/26 01:07:21;;;;;;;6.43;2.22;;;9.50;99.90;;;;;;5069585;28;20674;-72
2023/04/26 01:10:11;;;;;;;5.68;2.63;;;9.40;99.90;;;;;;5071173;28;20224;-72
2023/04/26 01:13:02;;;;;;;3.67;2.50;;;9.40;99.90;;;;;;5102843;27;20620;-73
2023/04/26 01:15:51;;;;;;;7.30;2.20;;;9.50;99.90;;;;;;5074853;28;20223;-73
2023/04/26 01:18:41;;;;;;;6.22;2.30;;;9.40;99.90;;;;;;5075602;28;20226;-73
2023/04/26 01:21:32;;;;;;;9.73;2.15;;;9.50;99.90;;;;;;5076191;28;21035;-73
2023/04/26 01:24:22;;;;;;;3.40;2.30;;;9.50;99.90;;;;;;5071004;28;20231;-72
2023/04/26 01:27:11;;;;;;;3.05;2.10;;;9.40;99.90;;;;;;5080624;28;20648;-70
2023/04/26 01:30:02;;;;;;;4.05;2.33;;;9.50;99.90;;;;;;5103952;27;20332;-71
2023/04/26 01:32:51;;;;;;;3.95;2.10;;;9.40;99.90;;;;;;5075449;28;20223;-69
2023/04/26 01:35:40;;;;;;;3.10;2.17;;;9.50;99.90;;;;;;5081540;28;20762;-72
2023/04/26 01:38:29;;;;;;;3.08;2.22;;;9.50;99.90;;;;;;5083631;28;20218;-71
2023/04/26 01:41:19;;;;;;;3.45;1.88;;;9.60;99.90;;;;;;5083017;28;20228;-71
2023/04/26 01:44:11;;;;;;;3.72;1.95;;;9.50;99.90;;;;;;5094083;28;20223;-72
2023/04/26 01:47:00;;;;;;;3.90;2.08;;;9.40;99.90;;;;;;5076635;28;20220;-73
2023/04/26 01:49:49;;;;;;;6.63;2.30;;;9.40;99.90;;;;;;5072692;28;20216;-72
2023/04/26 01:52:38;;;;;;;4.97;2.72;;;9.50;99.90;;;;;;5080175;28;20276;-72
2023/04/26 01:55:27;;;;;;;4.68;2.30;;;9.50;99.90;;;;;;5072412;28;20944;-73
2023/04/26 01:58:17;;;;;;;5.45;2.55;;;9.60;99.90;;;;;;5075098;28;20232;-72
2023/04/26 02:01:07;;;;;;;6.35;3.20;;;9.50;99.90;;;;;;5071289;28;20283;-72
2023/04/26 02:03:57;;;;;;;7.80;2.95;;;9.40;99.90;;;;;;5075252;28;20229;-72
2023/04/26 02:06:46;;;;;;;4.90;3.05;;;9.40;99.90;;;;;;5073505;28;20232;-72
2023/04/26 02:09:38;;;;;;;6.28;2.78;;;9.30;99.90;;;;;;5099264;27;20623;-75
2023/04/26 02:12:27;;;;;;;3.80;2.45;;;9.40;99.90;;;;;;5078890;28;20239;-74
2023/04/26 02:15:17;;;;;;;3.97;2.78;;;9.50;99.90;;;;;;5068007;28;20228;-72
2023/04/26 02:18:06;;;;;;;6.85;2.95;;;9.30;99.90;;;;;;5073366;28;20236;-73
2023/04/26 02:20:56;;;;;;;4.65;3.05;;;9.40;99.90;;;;;;5074232;28;20215;-74
2023/04/26 02:23:45;;;;;;;6.38;2.92;;;9.50;99.90;;;;;;5069383;28;21054;-73
2023/04/26 02:26:34;;;;;;;4.47;2.67;;;9.40;99.90;;;;;;5073101;28;20253;-72
2023/04/26 02:29:22;;;;;;;5.05;2.95;;;9.50;99.90;;;;;;5065289;28;20259;-73
2023/04/26 02:32:31;;;;;;;6.60;3.13;;;9.40;99.90;;;;;;5098380;27;20325;-72
2023/04/26 02:35:21;;;;;;;4.18;2.65;;;9.40;99.90;;;;;;5079463;27;21105;-71
2023/04/26 02:38:10;;;;;;;5.05;2.90;;;9.50;99.90;;;;;;5077063;28;20357;-70
2023/04/26 02:40:59;;;;;;;2.92;2.38;;;9.30;99.90;;;;;;5070053;28;20244;-72
2023/04/26 02:43:48;;;;;;;3.35;2.13;;;9.30;99.90;;;;;;5066397;28;20304;-71
2023/04/26 02:46:37;;;;;;;4.32;2.42;;;9.40;99.90;;;;;;5076558;28;20239;-72
2023/04/26 02:49:28;;;;;;;5.53;2.60;;;9.40;99.90;;;;;;5084035;27;20228;-72
2023/04/26 02:52:17;;;;;;;4.38;2.22;;;9.40;99.90;;;;;;5097458;27;20238;-72
2023/04/26 02:55:07;;;;;;;4.32;2.47;;;9.40;99.90;;;;;;5082507;28;20219;-72
2023/04/26 02:57:56;;;;;;;4.95;2.33;;;9.40;99.90;;;;;;5082353;28;20224;-73
2023/04/26 03:00:48;;;;;;;5.13;2.78;;;9.40;99.90;;;;;;5095931;28;20589;-73
2023/04/26 03:03:37;;;;;;;5.63;2.88;;;9.30;99.90;;;;;;5078172;28;20606;-73
2023/04/26 03:06:28;;;;;;;6.38;3.25;;;9.30;99.90;;;;;;5080146;28;20268;-74
2023/04/26 03:09:17;;;;;;;7.10;3.58;;;9.30;99.90;;;;;;5082684;28;20227;-74
2023/04/26 03:12:07;;;;;;;9.30;3.90;;;9.40;99.90;;;;;;5095693;27;20368;-72
2023/04/26 03:14:58;;;;;;;11.80;4.22;;;9.40;99.90;;;;;;5081552;28;20602;-74
2023/04/26 03:17:46;;;;;;;11.13;4.50;;;9.40;99.90;;;;;;5081920;28;20232;-75
2023/04/26 03:20:36;;;;;;;7.93;4.38;;;9.40;99.90;;;;;;5075477;28;20227;-74
2023/04/26 03:23:26;;;;;;;12.23;5.32;;;9.40;99.90;;;;;;5067839;28;20315;-73
2023/04/26 03:26:15;;;;;;;12.32;4.88;;;9.30;99.90;;;;;;5093658;27;20232;-74
2023/04/26 03:29:05;;;;;;;12.13;5.65;;;9.20;99.90;;;;;;5075137;28;20231;-75
2023/04/26 03:31:54;;;;;;;14.45;5.30;;;9.20;99.90;;;;;;5100542;27;20325;-74
2023/04/26 03:34:47;;;;;;;13.88;5.40;;;9.00;99.90;;;;;;5094215;27;20220;-74
2023/04/26 03:37:38;;;;;;;10.60;4.95;;;9.00;99.90;;;;;;5078294;28;20266;-73
2023/04/26 03:40:31;;;;;;;14.02;5.20;;;8.90;99.90;;;;;;5078816;28;20719;-72
2023/04/26 03:43:19;;;;;;;12.27;5.15;;;8.80;99.90;;;;;;5093670;27;20228;-73
2023/04/26 03:46:08;;;;;;;12.52;5.47;;;8.70;99.90;;;;;;5065589;27;20242;-73
2023/04/26 03:48:57;;;;;;;15.43;5.38;;;8.80;99.90;;;;;;5085385;28;20228;-73
2023/04/26 03:51:46;;;;;;;16.02;5.47;;;8.70;99.90;;;;;;5073517;28;20283;-73
2023/04/26 03:54:36;;;;;;;14.75;5.75;;;8.70;99.90;;;;;;5070709;28;20226;-73
2023/04/26 03:57:27;;;;;;;14.93;5.63;;;8.80;99.90;;;;;;5081345;28;20226;-73
2023/04/26 04:00:16;;;;;;;16.67;5.75;;;8.70;99.90;;;;;;5082427;28;20321;-75
2023/04/26 04:03:05;;;;;;;12.45;5.45;;;8.60;99.90;;;;;;5076594;27;20314;-73
2023/04/26 04:05:55;;;;;;;12.07;4.85;;;8.60;99.90;;;;;;5105011;27;20235;-71
2023/04/26 04:08:44;;;;;;;15.32;5.28;;;8.50;99.90;;;;;;5079022;28;20591;-74
2023/04/26 04:11:33;;;;;;;13.25;4.95;;;8.50;99.90;;;;;;5067612;28;20230;-74
2023/04/26 04:14:24;;;;;;;11.65;5.00;;;8.50;99.90;;;;;;5078603;28;20681;-73
2023/04/26 04:17:13;;;;;;;11.35;5.07;;;8.50;99.90;;;;;;5087464;28;20298;-74
2023/04/26 04:20:04;;;;;;;13.10;5.65;;;8.50;99.90;;;;;;5076195;28;20730;-73
2023/04/26 04:22:54;;;;;;;11.32;5.43;;;8.60;99.90;;;;;;5072576;28;20223;-74
2023/04/26 04:25:44;;;;;;;13.77;5.05;;;8.70;99.90;;;;;;5071405;28;20313;-75
2023/04/26 04:28:34;;;;;;;15.40;5.70;;;8.70;99.90;;;;;;5099184;27;20494;-74
2023/04/26 04:31:24;;;;;;;12.55;5.28;;;8.70;99.90;;;;;;5069941;28;20261;-74
2023/04/26 04:34:13;;;;;;;9.85;5.15;;;8.80;99.90;;;;;;5074128;28;20286;-71
2023/04/26 04:37:03;;;;;;;11.77;5.70;;;8.90;99.90;;;;;;5073566;28;20220;-74
2023/04/26 04:39:53;;;;;;;12.73;5.97;;;8.90;99.90;;;;;;5072795;28;20276;-73
2023/04/26 04:42:43;;;;;;;12.52;5.85;;;8.90;99.90;;;;;;5072337;28;20328;-75
2023/04/26 04:45:33;;;;;;;12.68;5.82;;;9.00;99.90;;;;;;5079385;28;20328;-74
2023/04/26 04:48:23;;;;;;;18.17;6.82;;;8.90;99.90;;;;;;5077172;28;20276;-73
2023/04/26 04:51:12;;;;;;;12.93;6.03;;;8.80;99.90;;;;;;5076126;28;20242;-73
2023/04/26 04:54:10;;;;;;;20.60;6.78;;;8.80;99.90;;;;;;5067354;28;20220;-73
2023/04/26 04:57:00;;;;;;;13.82;6.35;;;8.80;99.90;;;;;;5066614;28;20219;-73
2023/04/26 04:59:49;;;;;;;13.85;5.97;;;8.90;99.90;;;;;;5078450;28;20807;-75
2023/04/26 05:02:38;;;;;;;15.20;6.50;;;8.80;99.90;;;;;;5100717;28;20293;-74
2023/04/26 05:05:28;;;;;;;14.07;6.60;;;8.80;99.90;;;;;;5063381;28;20296;-72
2023/04/26 05:08:17;;;;;;;19.65;7.22;;;8.90;99.90;;;;;;5092378;28;20231;-71
2023/04/26 05:11:07;;;;;;;16.05;6.70;;;9.00;99.90;;;;;;5093126;28;20230;-72
2023/04/26 05:13:56;;;;;;;13.07;6.05;;;8.90;99.90;;;;;;5079037;28;20216;-71
2023/04/26 05:16:45;;;;;;;12.32;6.20;;;9.00;99.90;;;;;;5065903;28;20249;-70
2023/04/26 05:19:34;;;;;;;15.27;6.65;;;9.00;99.90;;;;;;5071249;28;20369;-71
2023/04/26 05:22:24;;;;;;;15.50;6.15;;;9.00;99.90;;;;;;5065686;28;20706;-73
2023/04/26 05:25:14;;;;;;;13.93;5.70;;;9.10;99.90;;;;;;5068110;28;20230;-73
2023/04/26 05:28:04;;;;;;;14.07;6.05;;;9.00;99.90;;;;;;5070792;28;20232;-73
2023/04/26 05:31:22;;;;;;;12.00;5.97;;;8.90;99.90;;;;;;5066777;28;20578;-73
2023/04/26 05:34:29;;;;;;;10.68;5.40;;;9.00;99.90;;;;;;5064852;28;20212;-72
2023/04/26 05:37:19;;;;;;;11.90;5.25;;;9.30;99.90;;;;;;5082869;28;20677;-71
2023/04/26 05:40:11;;;;;;;10.63;5.43;;;10.00;99.90;;;;;;5071790;28;20235;-72
2023/04/26 05:43:01;;;;;;;12.43;5.90;;;10.20;99.90;;;;;;5098336;27;20266;-71
2023/04/26 05:45:51;;;;;;;15.10;5.15;;;10.30;99.90;;;;;;5076030;28;20216;-73
2023/04/26 05:48:40;;;;;;;10.55;5.85;;;10.00;99.90;;;;;;5072128;28;20251;-74
2023/04/26 05:51:29;;;;;;;14.30;5.50;;;10.00;99.90;;;;;;5071770;28;20216;-75
2023/04/26 05:54:19;;;;;;;12.80;5.45;;;9.90;99.90;;;;;;5079376;28;20216;-74
2023/04/26 05:57:10;;;;;;;13.43;4.78;;;9.90;99.90;;;;;;5075053;28;20230;-75
2023/04/26 05:59:59;;;;;;;15.88;5.90;;;10.00;99.90;;;;;;5071044;28;20310;-73
2023/04/26 06:02:49;;;;;;;12.70;4.80;;;10.00;99.90;;;;;;5075802;28;20238;-73
2023/04/26 06:05:38;;;;;;;11.45;4.75;;;10.00;99.90;;;;;;5082276;28;20751;-73
2023/04/26 06:08:28;;;;;;;9.25;4.00;;;10.00;99.90;;;;;;5071321;28;20231;-72
2023/04/26 06:11:17;;;;;;;10.65;4.45;;;10.10;99.90;;;;;;5081209;28;20317;-73
2023/04/26 06:14:07;;;;;;;10.30;4.50;;;10.10;99.90;;;;;;5064873;28;20212;-73
2023/04/26 06:17:11;;;;;;;12.07;4.40;;;10.00;99.90;;;;;;5075805;28;20231;-73
2023/04/26 06:20:00;;;;;;;11.48;4.07;;;10.10;99.90;;;;;;5085826;28;20233;-73
2023/04/26 06:22:49;;;;;;;13.35;4.00;;;10.10;99.90;;;;;;5070669;28;20355;-71
2023/04/26 06:25:42;;;;;;;8.13;3.70;;;10.30;99.90;;;;;;5069492;28;20251;-72
2023/04/26 06:28:32;;;;;;;9.30;3.83;;;10.50;99.90;;;;;;5074900;28;20288;-73
2023/04/26 06:31:22;;;;;;;9.52;3.70;;;10.80;99.90;;;;;;5112553;27;20228;-74
2023/04/26 06:34:11;;;;;;;14.85;4.28;;;10.90;99.90;;;;;;5071722;28;20228;-72
2023/04/26 06:37:02;;;;;;;10.02;3.97;;;11.10;99.90;;;;;;5079736;28;20371;-72
2023/04/26 06:39:52;;;;;;;12.20;4.10;;;11.80;99.90;;;;;;5089692;28;20433;-72
2023/04/26 06:42:41;;;;;;;9.15;3.22;;;13.00;99.90;;;;;;5072935;28;20219;-74
2023/04/26 06:45:50;;;;;;;10.95;3.30;;;12.80;99.90;;;;;;5040873;28;20231;-73
2023/04/26 06:48:41;;;;;;;8.80;4.10;;;12.20;99.90;;;;;;5098155;27;20219;-72
2023/04/26 06:51:31;;;;;;;10.57;3.10;;;11.80;99.90;;;;;;5074714;28;20580;-73
2023/04/26 06:54:20;;;;;;;8.63;3.17;;;12.40;99.90;;;;;;5072036;28;20232;-72
2023/04/26 06:57:08;;;;;;;11.50;3.97;;;12.80;99.90;;;;;;5075010;28;20323;-73
2023/04/26 06:59:58;;;;;;;12.38;3.03;;;13.20;99.90;;;;;;5070494;28;20228;-73
2023/04/26 07:02:46;;;;;;;9.00;3.08;;;13.50;99.90;;;;;;5078376;28;20228;-73
2023/04/26 07:05:36;;;;;;;9.50;3.05;;;13.70;99.90;;;;;;5078737;28;20264;-73
2023/04/26 07:08:25;;;;;;;10.48;3.00;;;14.00;99.90;;;;;;5066072;28;20232;-73
2023/04/26 07:11:14;;;;;;;10.73;3.30;;;14.10;99.90;;;;;;5073973;28;20247;-74
2023/04/26 07:14:03;;;;;;;9.40;3.00;;;14.40;99.90;;;;;;5069887;28;20224;-73
2023/04/26 07:16:52;;;;;;;9.57;3.13;;;14.40;99.90;;;;;;5073685;28;20232;-74
2023/04/26 07:19:41;;;;;;;13.80;3.05;;;14.50;99.90;;;;;;5074107;28;20318;-73
2023/04/26 07:22:31;;;;;;;8.77;2.47;;;14.50;99.90;;;;;;5090940;27;20252;-73
2023/04/26 07:25:19;;;;;;;8.77;2.38;;;14.20;99.90;;;;;;5075503;28;20238;-73
2023/04/26 07:28:09;;;;;;;8.20;2.72;;;14.40;99.90;;;;;;5080909;28;20249;-74
2023/04/26 07:30:58;;;;;;;9.57;3.13;;;14.80;99.90;;;;;;5072737;28;20227;-72
2023/04/26 07:33:48;;;;;;;11.27;3.90;;;14.70;99.90;;;;;;5068126;28;20533;-73
2023/04/26 07:36:37;;;;;;;12.23;3.40;;;14.00;99.90;;;;;;5070916;28;20227;-72
2023/04/26 07:39:27;;;;;;;8.30;2.58;;;14.60;99.90;;;;;;5068635;28;20609;-74
2023/04/26 07:42:15;;;;;;;7.13;2.53;;;14.40;99.90;;;;;;5099686;27;20220;-73
2023/04/26 07:45:05;;;;;;;8.60;2.95;;;14.40;99.90;;;;;;5079610;28;20549;-74
2023/04/26 07:47:54;;;;;;;9.57;2.92;;;13.60;99.90;;;;;;5073488;28;20220;-73
2023/04/26 07:50:43;;;;;;;10.18;3.17;;;13.80;99.90;;;;;;5070629;28;20230;-73
2023/04/26 07:53:32;;;;;;;8.10;2.35;;;13.90;99.90;;;;;;5071225;28;20260;-74
2023/04/26 07:56:27;;;;;;;8.25;2.55;;;13.70;99.90;;;;;;5087345;27;20710;-72
2023/04/26 07:59:16;;;;;;;9.65;2.65;;;13.90;99.90;;;;;;5073948;28;20223;-74
2023/04/26 08:02:05;;;;;;;9.63;2.50;;;14.60;99.90;;;;;;5075683;28;20604;-72
2023/04/26 08:04:55;;;;;;;6.00;2.45;;;15.20;99.90;;;;;;5078284;28;20219;-73
2023/04/26 08:07:45;;;;;;;12.80;2.50;;;15.70;99.90;;;;;;5068276;28;20223;-72
2023/04/26 08:10:34;;;;;;;9.48;2.53;;;15.60;99.90;;;;;;5068653;28;20683;-72
2023/04/26 08:13:24;;;;;;;8.77;2.58;;;16.00;99.90;;;;;;5095902;27;20248;-74
2023/04/26 08:16:16;;;;;;;7.68;2.40;;;15.40;99.90;;;;;;5075669;28;20211;-73
2023/04/26 08:19:05;;;;;;;7.75;2.60;;;14.10;99.90;;;;;;5077811;28;20238;-71
2023/04/26 08:21:54;;;;;;;7.55;2.67;;;13.50;99.90;;;;;;5071020;28;20232;-73
2023/04/26 08:24:48;;;;;;;7.97;2.65;;;13.20;99.90;;;;;;5075269;28;20224;-74
2023/04/26 08:27:37;;;;;;;8.10;3.10;;;12.80;99.90;;;;;;5087716;28;20239;-73
2023/04/26 08:30:27;;;;;;;12.50;3.22;;;12.90;99.90;;;;;;5069433;28;20220;-73
2023/04/26 08:33:18;;;;;;;7.85;2.92;;;14.90;99.90;;;;;;5069972;28;20215;-75
2023/04/26 08:36:07;;;;;;;6.47;2.83;;;15.70;99.90;;;;;;5070386;28;20232;-73
2023/04/26 08:38:56;;;;;;;10.45;2.85;;;14.70;99.90;;;;;;5067312;28;20265;-73
2023/04/26 08:41:52;;;;;;;7.68;2.63;;;14.00;99.90;;;;;;5062939;28;20273;-73
2023/04/26 08:44:43;;;;;;;7.78;2.72;;;13.50;99.90;;;;;;5063259;28;20219;-73
2023/04/26 08:47:40;;;;;;;7.60;2.50;;;13.00;99.90;;;;;;5089839;28;20312;-74
2023/04/26 08:50:32;;;;;;;8.00;2.30;;;13.30;99.90;;;;;;5072123;28;20729;-73
2023/04/26 08:53:21;;;;;;;8.55;2.50;;;13.30;99.90;;;;;;5070431;28;20315;-73
2023/04/26 08:56:12;;;;;;;11.10;2.35;;;12.90;99.90;;;;;;5069816;28;20227;-73
2023/04/26 08:59:01;;;;;;;6.93;2.42;;;12.70;99.90;;;;;;5068008;28;20284;-73
2023/04/26 09:01:50;;;;;;;8.82;2.17;;;12.40;99.90;;;;;;5072997;28;20920;-76
2023/04/26 09:04:41;;;;;;;8.85;2.30;;;12.10;99.90;;;;;;5070640;28;20234;-72
2023/04/26 09:07:33;;;;;;;5.82;2.08;;;11.80;99.90;;;;;;5071990;28;20311;-74
2023/04/26 09:10:25;;;;;;;9.65;2.50;;;11.80;99.90;;;;;;5067160;28;20314;-75
2023/04/26 09:13:14;;;;;;;10.43;2.90;;;11.80;99.90;;;;;;5068758;28;20228;-74
2023/04/26 09:16:03;;;;;;;8.85;2.30;;;11.70;99.90;;;;;;5065023;28;20674;-75
2023/04/26 09:18:56;;;;;;;7.80;1.98;;;12.00;99.90;;;;;;5101375;27;20262;-73
2023/04/26 09:21:47;;;;;;;9.10;2.30;;;12.50;99.90;;;;;;5083724;27;20314;-75
2023/04/26 09:24:51;;;;;;;6.70;2.13;;;12.30;99.90;;;;;;5076775;28;20711;-75
2023/04/26 09:27:43;;;;;;;6.18;1.70;;;12.00;99.90;;;;;;5070236;28;20242;-74
2023/04/26 09:30:39;;;;;;;6.15;1.88;;;11.70;99.90;;;;;;5075859;28;20266;-74
2023/04/26 09:33:28;;;;;;;6.13;1.98;;;11.70;99.90;;;;;;5075741;28;20719;-74
2023/04/26 09:36:17;;;;;;;7.13;2.00;;;11.60;99.90;;;;;;5071356;28;20223;-75
2023/04/26 09:39:07;;;;;;;9.35;2.40;;;11.50;99.90;;;;;;5077421;28;20225;-75
2023/04/26 09:41:56;;;;;;;10.18;2.00;;;11.50;99.90;;;;;;5066376;28;20250;-73
2023/04/26 09:44:46;;;;;;;9.25;2.17;;;11.50;99.90;;;;;;5067047;28;21143;-75
2023/04/26 09:47:35;;;;;;;5.57;1.75;;;11.80;99.90;;;;;;5063993;28;20302;-74
2023/04/26 09:50:31;;;;;;;7.47;2.05;;;14.90;99.90;;;;;;5081181;28;20223;-73
2023/04/26 09:53:32;;;;;;;6.53;1.85;;;14.40;99.90;;;;;;5076743;28;20224;-75
2023/04/26 09:56:22;;;;;;;5.97;1.90;;;13.60;99.90;;;;;;5087504;28;20231;-75
2023/04/26 09:59:11;;;;;;;9.52;2.40;;;12.80;99.90;;;;;;5069338;28;20223;-75
2023/04/26 10:02:00;;;;;;;5.30;1.92;;;12.30;99.90;;;;;;5102087;27;20266;-73
2023/04/26 10:04:50;;;;;;;10.15;1.83;;;12.10;99.90;;;;;;5070497;28;20230;-73
2023/04/26 10:07:40;;;;;;;6.97;2.10;;;11.90;99.90;;;;;;5071389;27;20318;-74
2023/04/26 10:10:30;;;;;;;14.50;1.90;;;12.00;99.90;;;;;;5069771;28;20227;-73
2023/04/26 10:13:21;;;;;;;6.95;1.77;;;12.30;99.50;;;;;;5086551;28;20583;-73
2023/04/26 10:16:10;;;;;;;5.38;1.42;;;13.70;98.70;;;;;;5085995;28;20216;-73
2023/04/26 10:18:59;;;;;;;5.95;1.83;;;16.30;94.80;;;;;;5102946;27;20231;-74
2023/04/26 10:21:51;;;;;;;5.93;1.67;;;15.40;94.50;;;;;;5073218;28;20219;-74
2023/04/26 10:24:40;;;;;;;5.45;1.40;;;14.70;94.80;;;;;;5073408;28;20228;-75
2023/04/26 10:27:52;;;;;;;12.70;1.85;;;13.80;96.30;;;;;;5072781;28;20318;-74
2023/04/26 10:30:59;;;;;;;9.80;3.50;;;13.10;96.10;;;;;;5070392;28;20786;-73
2023/04/26 10:34:20;;;;;;;5.70;1.70;;;12.70;96.20;;;;;;5067640;28;20219;-73
2023/04/26 10:37:13;;;;;;;7.22;1.67;;;13.30;94.30;;;;;;5066408;28;20813;-73
2023/04/26 10:40:23;;;;;;;5.70;1.60;;;13.40;93.60;;;;;;5077847;28;21746;-74
2023/04/26 10:43:31;;;;;;;6.15;1.90;;;13.20;94.60;;;;;;5070580;28;20314;-74
2023/04/26 10:46:41;;;;;;;3.30;1.67;;;13.00;94.70;;;;;;5079186;28;20258;-74
2023/04/26 10:49:44;;;;;;;5.82;1.80;;;12.60;96.10;;;;;;5074795;28;20227;-73
2023/04/26 10:52:34;;;;;;;9.00;1.85;;;12.40;94.60;;;;;;5067617;28;20543;-73
2023/04/26 10:55:39;;;;;;;9.25;2.10;;;12.30;95.80;;;;;;5076652;28;20224;-72
2023/04/26 10:58:30;;;;;;;4.45;1.70;;;12.30;96.50;;;;;;5072326;28;20234;-73
2023/04/26 11:01:19;;;;;;;8.32;2.25;;;12.50;98.70;;;;;;5069381;28;20254;-73
2023/04/26 11:04:13;;;;;;;8.27;2.08;;;12.40;97.90;;;;;;5075346;28;20220;-72
2023/04/26 11:07:03;;;;;;;8.10;1.95;;;12.20;97.20;;;;;;5064944;28;20230;-73
2023/04/26 11:09:52;;;;;;;7.68;2.00;;;12.30;96.70;;;;;;5075225;28;20220;-72
2023/04/26 11:12:42;;;;;;;9.27;2.40;;;12.70;96.80;;;;;;5076619;28;20393;-75
2023/04/26 11:15:32;;;;;;;6.93;2.20;;;13.10;96.90;;;;;;5068736;28;20220;-73
2023/04/26 11:18:21;;;;;;;5.78;2.20;;;13.00;95.30;;;;;;5072242;28;20238;-71
2023/04/26 11:21:11;;;;;;;8.45;2.33;;;12.60;95.90;;;;;;5073562;28;20230;-73
2023/04/26 11:24:02;;;;;;;4.60;1.80;;;12.60;97.60;;;;;;5068397;28;20223;-73
2023/04/26 11:26:54;;;;;;;8.80;2.30;;;12.20;95.70;;;;;;5077650;28;20285;-74
2023/04/26 11:29:43;;;;;;;7.13;2.10;;;11.80;95.10;;;;;;5074595;28;20231;-73
2023/04/26 11:32:35;;;;;;;9.18;2.17;;;11.60;96.00;;;;;;5072176;28;20565;-72
2023/04/26 11:35:26;;;;;;;3.00;1.50;;;11.80;96.40;;;;;;5077205;28;20276;-75
2023/04/26 11:38:15;;;;;;;6.57;2.33;;;11.90;95.10;;;;;;5067635;28;20234;-74
2023/04/26 11:41:05;;;;;;;6.75;1.95;;;12.00;96.20;;;;;;5071949;28;20227;-73
2023/04/26 11:43:54;;;;;;;5.07;2.45;;;12.80;95.10;;;;;;5077845;28;20257;-72
2023/04/26 11:46:43;;;;;;;6.20;2.10;;;12.90;94.30;;;;;;5074740;28;20216;-73
2023/04/26 11:49:34;;;;;;;8.55;2.05;;;13.00;95.90;;;;;;5059718;28;20282;-72
2023/04/26 11:52:24;;;;;;;7.35;1.92;;;12.90;96.00;;;;;;5070390;28;20222;-73
2023/04/26 11:55:13;;;;;;;8.27;2.20;;;12.80;95.80;;;;;;5075057;28;20224;-72
2023/04/26 11:58:11;;;;;;;5.45;2.22;;;13.50;95.60;;;;;;5073500;28;20234;-74
2023/04/26 12:01:02;;;;;;;10.00;2.25;;;13.10;95.80;;;;;;5075610;28;20223;-74
2023/04/26 12:03:52;;;;;;;7.78;1.83;;;12.70;96.20;;;;;;5068251;28;20310;-73
2023/04/26 12:06:45;;;;;;;7.30;2.17;;;12.50;95.40;;;;;;5072801;28;20259;-72
2023/04/26 12:09:34;;;;;;;6.85;2.22;;;12.20;95.20;;;;;;5076149;28;20235;-72
2023/04/26 12:12:27;;;;;;;9.73;2.58;;;12.20;96.50;;;;;;5064983;28;20484;-71
2023/04/26 12:15:18;;;;;;;8.48;1.92;;;12.20;96.50;;;;;;5063758;28;20227;-71
2023/04/26 12:18:09;;;;;;;8.63;2.05;;;12.20;96.50;;;;;;5068278;28;20223;-72
2023/04/26 12:20:59;;;;;;;5.35;1.80;;;12.30;96.10;;;;;;5069709;28;20222;-71
2023/04/26 12:23:48;;;;;;;9.25;2.03;;;12.40;96.00;;;;;;5073036;28;20256;-71
2023/04/26 12:26:44;;;;;;;8.02;1.88;;;12.40;94.20;;;;;;5075248;28;20888;-72
2023/04/26 12:29:33;;;;;;;9.70;2.92;;;13.00;94.50;;;;;;5069215;28;20307;-72
2023/04/26 12:32:24;;;;;;;7.82;2.50;;;13.10;94.10;;;;;;5079677;28;20219;-73
2023/04/26 12:35:13;;;;;;;6.88;2.83;;;13.00;93.90;;;;;;5072996;28;21234;-72
2023/04/26 12:38:02;;;;;;;7.18;2.35;;;12.70;94.80;;;;;;5080422;28;20217;-70
2023/04/26 12:40:51;;;;;;;5.90;2.28;;;12.60;94.80;;;;;;5070181;28;20341;-72
2023/04/26 12:43:40;;;;;;;5.50;2.20;;;12.00;94.20;;;;;;5070747;28;20300;-72
2023/04/26 12:46:29;;;;;;;8.60;1.98;;;11.90;94.80;;;;;;5073192;28;20230;-72
2023/04/26 12:49:20;;;;;;;6.43;2.00;;;11.80;94.70;;;;;;5080992;27;20230;-72
2023/04/26 12:52:09;;;;;;;5.95;1.80;;;11.90;94.60;;;;;;5077098;28;20226;-71
2023/04/26 12:54:57;;;;;;;7.82;1.95;;;11.90;94.50;;;;;;5080117;28;20230;-74
2023/04/26 12:57:46;;;;;;;4.55;1.80;;;12.20;93.80;;;;;;5077300;28;20231;-72
2023/04/26 13:00:35;;;;;;;6.40;2.50;;;12.50;93.70;;;;;;5073208;28;20216;-73
2023/04/26 13:03:24;;;;;;;5.00;2.15;;;12.70;93.10;;;;;;5079580;28;20302;-73
2023/04/26 13:06:15;;;;;;;7.18;1.95;;;12.70;92.70;;;;;;5070924;28;20239;-73
2023/04/26 13:09:06;;;;;;;3.72;1.67;;;12.50;91.50;;;;;;5100526;27;20230;-74
2023/04/26 13:11:55;;;;;;;4.53;1.60;;;12.10;91.30;;;;;;5072489;27;20227;-72
2023/04/26 13:14:45;;;;;;;5.22;1.98;;;12.00;92.50;;;;;;5083360;28;20242;-72
2023/04/26 13:17:35;;;;;;;6.97;2.10;;;12.00;93.60;;;;;;5074961;28;20306;-72
2023/04/26 13:20:23;;;;;;;6.65;1.83;;;11.90;93.40;;;;;;5071300;28;20223;-72
2023/04/26 13:23:16;;;;;;;6.03;2.03;;;11.90;94.10;;;;;;5097168;27;20313;-73
2023/04/26 13:26:05;;;;;;;9.18;2.13;;;11.80;93.60;;;;;;5071938;28;20307;-72
2023/04/26 13:28:55;;;;;;;7.45;2.22;;;12.00;95.10;;;;;;5074718;28;20238;-75
2023/04/26 13:31:43;;;;;;;6.75;2.13;;;12.30;93.90;;;;;;5067497;28;20690;-74
2023/04/26 13:34:32;;;;;;;6.10;2.22;;;12.40;93.00;;;;;;5076631;27;20252;-74
2023/04/26 13:37:22;;;;;;;4.45;1.70;;;12.50;92.50;;;;;;5075791;28;20303;-73
2023/04/26 13:40:13;;;;;;;4.50;2.20;;;12.50;92.90;;;;;;5075686;28;20377;-75
2023/04/26 13:43:02;;;;;;;5.18;2.00;;;12.30;91.80;;;;;;5098691;27;20239;-75
2023/04/26 13:45:51;;;;;;;5.10;1.85;;;12.30;92.70;;;;;;5071451;28;20847;-74
2023/04/26 13:48:41;;;;;;;9.45;1.90;;;12.40;93.20;;;;;;5071557;28;20227;-75
2023/04/26 13:51:32;;;;;;;6.90;2.10;;;12.20;92.70;;;;;;5068703;28;20231;-76
2023/04/26 13:54:24;;;;;;;6.07;2.10;;;12.20;92.50;;;;;;5070161;28;20216;-78
2023/04/26 13:57:15;;;;;;;8.98;2.10;;;12.20;92.50;;;;;;5098667;27;20598;-77
2023/04/26 14:00:04;;;;;;;6.78;2.10;;;12.00;93.40;;;;;;5074082;28;20319;-76
2023/04/26 14:02:59;;;;;;;8.18;2.22;;;12.00;93.90;;;;;;5074853;28;20310;-75
2023/04/26 14:05:48;;;;;;;5.88;2.28;;;12.00;94.70;;;;;;5091022;27;20240;-76
2023/04/26 14:08:37;;;;;;;8.70;2.10;;;12.10;93.20;;;;;;5079616;28;20299;-77
2023/04/26 14:11:26;;;;;;;8.35;2.10;;;12.30;93.90;;;;;;5078149;28;20230;-73
2023/04/26 14:14:16;;;;;;;5.95;2.00;;;12.50;93.50;;;;;;5073990;28;20210;-75
2023/04/26 14:17:05;;;;;;;6.38;2.47;;;12.40;92.70;;;;;;5073589;28;20231;-77
2023/04/26 14:19:54;;;;;;;5.78;2.00;;;12.50;93.50;;;;;;5072204;28;20329;-75
2023/04/26 14:22:43;;;;;;;13.20;2.50;;;12.30;91.80;;;;;;5077760;28;20223;-72
2023/04/26 14:25:33;;;;;;;5.10;2.00;;;12.10;90.90;;;;;;5083562;28;20223;-72
2023/04/26 14:28:23;;;;;;;3.88;1.70;;;12.00;92.80;;;;;;5077170;28;20238;-77
2023/04/26 14:31:16;;;;;;;5.57;2.10;;;12.00;92.50;;;;;;5077609;28;20243;-72
2023/04/26 14:34:05;;;;;;;8.82;2.50;;;11.90;93.00;;;;;;5069901;28;20297;-75
2023/04/26 14:36:56;;;;;;;7.22;2.20;;;11.90;94.00;;;;;;5073709;28;20216;-74
2023/04/26 14:39:45;;;;;;;8.02;2.60;;;11.80;93.30;;;;;;5069147;28;20377;-75
2023/04/26 14:42:34;;;;;;;5.30;2.58;;;11.90;93.30;;;;;;5066974;28;20265;-76
2023/04/26 14:45:23;;;;;;;5.78;2.65;;;11.70;93.90;;;;;;5075402;28;20227;-75
2023/04/26 14:48:32;;;;;;;9.88;2.38;;;11.60;94.40;;;;;;5065088;28;20219;-75
2023/04/26 14:51:22;;;;;;;5.97;2.22;;;11.70;93.90;;;;;;5074006;28;20239;-76